sensor_id;sensor_type;location;lat;lon;timestamp;temperature;humidity
43530;DHT22;55654;50.966;6.878;2023-07-08T00:01:15;22.20;99.90
43530;DHT22;55654;50.966;6.878;2023-07-08T00:03:41;22.20;99.90
43530;DHT22;55654;50.966;6.878;2023-07-08T00:06:13;22.10;99.90
43530;DHT22;55654;50.966;6.878;2023-07-08T00:08:40;22.10;99.90
43530;DHT22;55654;50.966;6.878;2023-07-08T00:11:13;22.00;99.90
43530;DHT22;55654;50.966;6.878;2023-07-08T00:13:38;22.00;99.90
43530;DHT22;55654;50.966;6.878;2023-07-08T00:16:07;21.90;99.90
43530;DHT22;55654;50.966;6.878;2023-07-08T00:18:36;21.90;99.90
43530;DHT22;55654;50.966;6.878;2023-07-08T00:21:01;21.80;99.90
43530;DHT22;55654;50.966;6.878;2023-07-08T00:23:29;21.80;99.90
43530;DHT22;55654;50.966;6.878;2023-07-08T00:25:57;21.80;99.90
43530;DHT22;55654;50.966;6.878;2023-07-08T00:28:23;21.70;99.90
43530;DHT22;55654;50.966;6.878;2023-07-08T00:30:48;21.70;99.90
43530;DHT22;55654;50.966;6.878;2023-07-08T00:33:14;21.60;99.90
43530;DHT22;55654;50.966;6.878;2023-07-08T00:35:41;21.50;99.90
43530;DHT22;55654;50.966;6.878;2023-07-08T00:38:24;21.50;99.90
43530;DHT22;55654;50.966;6.878;2023-07-08T00:41:06;21.40;99.90
43530;DHT22;55654;50.966;6.878;2023-07-08T00:43:44;21.40;99.90
43530;DHT22;55654;50.966;6.878;2023-07-08T00:48:56;21.30;99.90
43530;DHT22;55654;50.966;6.878;2023-07-08T00:51:26;21.20;99.90
43530;DHT22;55654;50.966;6.878;2023-07-08T00:53:52;21.20;99.90
43530;DHT22;55654;50.966;6.878;2023-07-08T01:01:17;21.10;99.90
43530;DHT22;55654;50.966;6.878;2023-07-08T01:03:52;21.10;99.90
43530;DHT22;55654;50.966;6.878;2023-07-08T01:06:19;21.10;99.90
43530;DHT22;55654;50.966;6.878;2023-07-08T01:08:48;21.00;99.90
43530;DHT22;55654;50.966;6.878;2023-07-08T01:11:18;21.00;99.90
43530;DHT22;55654;50.966;6.878;2023-07-08T01:13:48;20.90;99.90
43530;DHT22;55654;50.966;6.878;2023-07-08T01:16:16;21.00;99.90
43530;DHT22;55654;50.966;6.878;2023-07-08T01:18:42;20.90;99.90
43530;DHT22;55654;50.966;6.878;2023-07-08T01:21:39;20.90;99.90
43530;DHT22;55654;50.966;6.878;2023-07-08T01:24:07;20.90;99.90
43530;DHT22;55654;50.966;6.878;2023-07-08T01:26:36;20.80;99.90
43530;DHT22;55654;50.966;6.878;2023-07-08T01:29:03;20.80;99.90
43530;DHT22;55654;50.966;6.878;2023-07-08T01:31:29;20.70;99.90
43530;DHT22;55654;50.966;6.878;2023-07-08T01:34:22;20.70;99.90
43530;DHT22;55654;50.966;6.878;2023-07-08T01:36:49;20.70;99.90
43530;DHT22;55654;50.966;6.878;2023-07-08T01:39:18;20.70;99.90
43530;DHT22;55654;50.966;6.878;2023-07-08T01:41:45;20.70;99.90
43530;DHT22;55654;50.966;6.878;2023-07-08T01:44:37;20.70;99.90
43530;DHT22;55654;50.966;6.878;2023-07-08T01:47:19;20.70;99.90
43530;DHT22;55654;50.966;6.878;2023-07-08T01:49:47;20.60;99.90
43530;DHT22;55654;50.966;6.878;2023-07-08T01:52:15;20.70;99.90
43530;DHT22;55654;50.966;6.878;2023-07-08T01:54:42;20.70;99.90
43530;DHT22;55654;50.966;6.878;2023-07-08T01:57:08;20.70;99.90
43530;DHT22;55654;50.966;6.878;2023-07-08T01:59:34;20.70;99.90
43530;DHT22;55654;50.966;6.878;2023-07-08T02:02:00;20.70;99.90
43530;DHT22;55654;50.966;6.878;2023-07-08T02:04:26;20.70;99.90
43530;DHT22;55654;50.966;6.878;2023-07-08T02:06:55;20.70;99.90
43530;DHT22;55654;50.966;6.878;2023-07-08T02:09:21;20.70;99.90
43530;DHT22;55654;50.966;6.878;2023-07-08T02:11:47;20.70;99.90
43530;DHT22;55654;50.966;6.878;2023-07-08T02:14:13;20.70;99.90
43530;DHT22;55654;50.966;6.878;2023-07-08T02:16:39;20.70;99.90
43530;DHT22;55654;50.966;6.878;2023-07-08T02:19:04;20.80;99.90
43530;DHT22;55654;50.966;6.878;2023-07-08T02:21:30;20.80;99.90
43530;DHT22;55654;50.966;6.878;2023-07-08T02:23:57;20.80;99.90
43530;DHT22;55654;50.966;6.878;2023-07-08T02:26:23;20.80;99.90
43530;DHT22;55654;50.966;6.878;2023-07-08T02:28:48;20.80;99.90
43530;DHT22;55654;50.966;6.878;2023-07-08T02:31:14;20.80;99.90
43530;DHT22;55654;50.966;6.878;2023-07-08T02:33:40;20.80;99.90
43530;DHT22;55654;50.966;6.878;2023-07-08T02:36:06;20.80;99.90
43530;DHT22;55654;50.966;6.878;2023-07-08T02:38:31;20.80;99.90
43530;DHT22;55654;50.966;6.878;2023-07-08T02:40:58;20.80;99.90
43530;DHT22;55654;50.966;6.878;2023-07-08T02:43:23;20.80;99.90
43530;DHT22;55654;50.966;6.878;2023-07-08T02:45:52;20.70;99.90
43530;DHT22;55654;50.966;6.878;2023-07-08T02:48:21;20.60;99.90
43530;DHT22;55654;50.966;6.878;2023-07-08T02:50:47;20.70;99.90
43530;DHT22;55654;50.966;6.878;2023-07-08T02:53:12;20.60;99.90
43530;DHT22;55654;50.966;6.878;2023-07-08T02:55:39;20.60;99.90
43530;DHT22;55654;50.966;6.878;2023-07-08T02:58:10;20.50;99.90
43530;DHT22;55654;50.966;6.878;2023-07-08T03:00:36;20.40;99.90
43530;DHT22;55654;50.966;6.878;2023-07-08T03:03:03;20.40;99.90
43530;DHT22;55654;50.966;6.878;2023-07-08T03:05:29;20.40;99.90
43530;DHT22;55654;50.966;6.878;2023-07-08T03:07:56;20.40;99.90
43530;DHT22;55654;50.966;6.878;2023-07-08T03:10:22;20.30;99.90
43530;DHT22;55654;50.966;6.878;2023-07-08T03:12:47;20.20;99.90
43530;DHT22;55654;50.966;6.878;2023-07-08T03:15:13;20.10;99.90
43530;DHT22;55654;50.966;6.878;2023-07-08T03:17:39;20.00;99.90
43530;DHT22;55654;50.966;6.878;2023-07-08T03:20:06;19.90;99.90
43530;DHT22;55654;50.966;6.878;2023-07-08T03:22:32;19.90;99.90
43530;DHT22;55654;50.966;6.878;2023-07-08T03:24:58;19.90;99.90
43530;DHT22;55654;50.966;6.878;2023-07-08T03:27:24;19.90;99.90
43530;DHT22;55654;50.966;6.878;2023-07-08T03:29:50;19.90;99.90
43530;DHT22;55654;50.966;6.878;2023-07-08T03:32:15;19.90;99.90
43530;DHT22;55654;50.966;6.878;2023-07-08T03:34:41;19.80;99.90
43530;DHT22;55654;50.966;6.878;2023-07-08T03:37:08;19.70;99.90
43530;DHT22;55654;50.966;6.878;2023-07-08T03:39:34;19.80;99.90
43530;DHT22;55654;50.966;6.878;2023-07-08T03:42:00;19.80;99.90
43530;DHT22;55654;50.966;6.878;2023-07-08T03:44:27;19.80;99.90
43530;DHT22;55654;50.966;6.878;2023-07-08T03:46:53;19.80;99.90
43530;DHT22;55654;50.966;6.878;2023-07-08T03:49:20;19.80;99.90
43530;DHT22;55654;50.966;6.878;2023-07-08T03:51:50;19.90;99.90
43530;DHT22;55654;50.966;6.878;2023-07-08T03:54:17;19.80;99.90
43530;DHT22;55654;50.966;6.878;2023-07-08T03:56:43;19.90;99.90
43530;DHT22;55654;50.966;6.878;2023-07-08T03:59:09;19.90;99.90
43530;DHT22;55654;50.966;6.878;2023-07-08T04:01:35;19.90;99.90
43530;DHT22;55654;50.966;6.878;2023-07-08T04:04:01;20.00;99.90
43530;DHT22;55654;50.966;6.878;2023-07-08T04:06:27;20.00;99.90
43530;DHT22;55654;50.966;6.878;2023-07-08T04:08:55;20.10;99.90
43530;DHT22;55654;50.966;6.878;2023-07-08T04:11:23;20.10;99.90
43530;DHT22;55654;50.966;6.878;2023-07-08T04:13:49;20.10;99.90
43530;DHT22;55654;50.966;6.878;2023-07-08T04:16:24;20.20;99.90
43530;DHT22;55654;50.966;6.878;2023-07-08T04:18:50;20.30;99.90
43530;DHT22;55654;50.966;6.878;2023-07-08T04:21:19;20.20;99.90
43530;DHT22;55654;50.966;6.878;2023-07-08T04:23:44;20.20;99.90
43530;DHT22;55654;50.966;6.878;2023-07-08T04:26:10;20.20;99.90
43530;DHT22;55654;50.966;6.878;2023-07-08T04:28:36;20.20;99.90
43530;DHT22;55654;50.966;6.878;2023-07-08T04:31:02;20.20;99.90
43530;DHT22;55654;50.966;6.878;2023-07-08T04:33:29;20.20;99.90
43530;DHT22;55654;50.966;6.878;2023-07-08T04:35:55;20.20;99.90
43530;DHT22;55654;50.966;6.878;2023-07-08T04:38:23;20.20;99.90
43530;DHT22;55654;50.966;6.878;2023-07-08T04:40:50;20.20;99.90
43530;DHT22;55654;50.966;6.878;2023-07-08T04:43:17;20.20;99.90
43530;DHT22;55654;50.966;6.878;2023-07-08T04:45:45;20.20;99.90
43530;DHT22;55654;50.966;6.878;2023-07-08T04:48:15;20.20;99.90
43530;DHT22;55654;50.966;6.878;2023-07-08T04:50:42;20.20;99.90
43530;DHT22;55654;50.966;6.878;2023-07-08T04:53:08;20.10;99.90
43530;DHT22;55654;50.966;6.878;2023-07-08T04:55:36;20.20;99.90
43530;DHT22;55654;50.966;6.878;2023-07-08T04:58:02;20.30;99.90
43530;DHT22;55654;50.966;6.878;2023-07-08T05:00:28;20.30;99.90
43530;DHT22;55654;50.966;6.878;2023-07-08T05:02:54;20.50;99.90
43530;DHT22;55654;50.966;6.878;2023-07-08T05:05:20;20.40;99.90
43530;DHT22;55654;50.966;6.878;2023-07-08T05:07:46;20.40;99.90
43530;DHT22;55654;50.966;6.878;2023-07-08T05:10:15;20.50;99.90
43530;DHT22;55654;50.966;6.878;2023-07-08T05:12:41;20.60;99.90
43530;DHT22;55654;50.966;6.878;2023-07-08T05:15:07;20.70;99.90
43530;DHT22;55654;50.966;6.878;2023-07-08T05:17:33;20.80;99.90
43530;DHT22;55654;50.966;6.878;2023-07-08T05:19:59;20.90;99.90
43530;DHT22;55654;50.966;6.878;2023-07-08T05:22:29;21.00;99.90
43530;DHT22;55654;50.966;6.878;2023-07-08T05:24:55;21.10;99.90
43530;DHT22;55654;50.966;6.878;2023-07-08T05:27:24;21.30;99.90
43530;DHT22;55654;50.966;6.878;2023-07-08T05:29:50;21.40;99.90
43530;DHT22;55654;50.966;6.878;2023-07-08T05:32:16;21.40;99.80
43530;DHT22;55654;50.966;6.878;2023-07-08T05:34:42;21.50;99.60
43530;DHT22;55654;50.966;6.878;2023-07-08T05:37:08;21.50;99.10
43530;DHT22;55654;50.966;6.878;2023-07-08T05:39:36;21.50;99.10
43530;DHT22;55654;50.966;6.878;2023-07-08T05:42:02;21.60;98.50
43530;DHT22;55654;50.966;6.878;2023-07-08T05:44:28;21.60;98.20
43530;DHT22;55654;50.966;6.878;2023-07-08T05:46:54;21.60;98.00
43530;DHT22;55654;50.966;6.878;2023-07-08T05:49:19;21.70;97.80
43530;DHT22;55654;50.966;6.878;2023-07-08T05:51:45;21.70;97.50
43530;DHT22;55654;50.966;6.878;2023-07-08T05:54:13;21.80;97.20
43530;DHT22;55654;50.966;6.878;2023-07-08T05:56:39;21.80;97.20
43530;DHT22;55654;50.966;6.878;2023-07-08T05:59:05;21.90;97.10
43530;DHT22;55654;50.966;6.878;2023-07-08T06:01:31;22.00;96.50
43530;DHT22;55654;50.966;6.878;2023-07-08T06:03:56;22.20;95.80
43530;DHT22;55654;50.966;6.878;2023-07-08T06:06:25;22.40;95.30
43530;DHT22;55654;50.966;6.878;2023-07-08T06:08:50;22.50;95.10
43530;DHT22;55654;50.966;6.878;2023-07-08T06:11:16;22.70;94.40
43530;DHT22;55654;50.966;6.878;2023-07-08T06:13:44;22.80;93.60
43530;DHT22;55654;50.966;6.878;2023-07-08T06:16:09;22.90;93.10
43530;DHT22;55654;50.966;6.878;2023-07-08T06:18:35;23.10;92.30
43530;DHT22;55654;50.966;6.878;2023-07-08T06:21:01;23.10;92.20
43530;DHT22;55654;50.966;6.878;2023-07-08T06:23:29;23.10;92.30
43530;DHT22;55654;50.966;6.878;2023-07-08T06:25:55;23.20;92.30
43530;DHT22;55654;50.966;6.878;2023-07-08T06:28:21;23.20;92.00
43530;DHT22;55654;50.966;6.878;2023-07-08T06:30:50;23.20;92.10
43530;DHT22;55654;50.966;6.878;2023-07-08T06:33:15;23.20;91.70
43530;DHT22;55654;50.966;6.878;2023-07-08T06:35:42;23.20;91.80
43530;DHT22;55654;50.966;6.878;2023-07-08T06:38:08;23.40;91.40
43530;DHT22;55654;50.966;6.878;2023-07-08T06:40:34;23.40;90.80
43530;DHT22;55654;50.966;6.878;2023-07-08T06:43:01;23.40;90.80
43530;DHT22;55654;50.966;6.878;2023-07-08T06:45:27;23.40;90.90
43530;DHT22;55654;50.966;6.878;2023-07-08T06:47:55;23.50;90.70
43530;DHT22;55654;50.966;6.878;2023-07-08T06:50:20;23.50;90.80
43530;DHT22;55654;50.966;6.878;2023-07-08T06:52:46;23.60;91.00
43530;DHT22;55654;50.966;6.878;2023-07-08T06:55:13;23.60;90.90
43530;DHT22;55654;50.966;6.878;2023-07-08T06:57:46;23.60;90.40
43530;DHT22;55654;50.966;6.878;2023-07-08T07:00:12;23.70;90.90
43530;DHT22;55654;50.966;6.878;2023-07-08T07:02:38;23.70;90.90
43530;DHT22;55654;50.966;6.878;2023-07-08T07:05:04;23.80;90.30
43530;DHT22;55654;50.966;6.878;2023-07-08T07:07:30;23.90;89.40
43530;DHT22;55654;50.966;6.878;2023-07-08T07:09:56;24.00;88.80
43530;DHT22;55654;50.966;6.878;2023-07-08T07:12:26;24.00;88.90
43530;DHT22;55654;50.966;6.878;2023-07-08T07:14:52;24.00;89.10
43530;DHT22;55654;50.966;6.878;2023-07-08T07:17:22;23.90;89.00
43530;DHT22;55654;50.966;6.878;2023-07-08T07:19:48;24.00;89.00
43530;DHT22;55654;50.966;6.878;2023-07-08T07:22:17;24.00;89.60
43530;DHT22;55654;50.966;6.878;2023-07-08T07:24:42;24.00;89.50
43530;DHT22;55654;50.966;6.878;2023-07-08T07:27:11;23.90;89.10
43530;DHT22;55654;50.966;6.878;2023-07-08T07:29:47;23.80;89.00
43530;DHT22;55654;50.966;6.878;2023-07-08T07:32:17;23.80;89.90
43530;DHT22;55654;50.966;6.878;2023-07-08T07:34:45;23.80;89.80
43530;DHT22;55654;50.966;6.878;2023-07-08T07:37:14;23.80;89.90
43530;DHT22;55654;50.966;6.878;2023-07-08T07:39:41;23.90;89.80
43530;DHT22;55654;50.966;6.878;2023-07-08T07:42:07;23.90;89.70
43530;DHT22;55654;50.966;6.878;2023-07-08T07:44:33;23.90;89.90
43530;DHT22;55654;50.966;6.878;2023-07-08T07:46:59;24.00;88.90
43530;DHT22;55654;50.966;6.878;2023-07-08T07:49:24;24.00;88.80
43530;DHT22;55654;50.966;6.878;2023-07-08T07:51:50;24.00;88.00
43530;DHT22;55654;50.966;6.878;2023-07-08T07:54:16;24.20;87.90
43530;DHT22;55654;50.966;6.878;2023-07-08T07:56:42;24.20;87.60
43530;DHT22;55654;50.966;6.878;2023-07-08T07:59:07;24.20;88.00
43530;DHT22;55654;50.966;6.878;2023-07-08T08:01:33;24.30;87.40
43530;DHT22;55654;50.966;6.878;2023-07-08T08:04:00;24.40;86.90
43530;DHT22;55654;50.966;6.878;2023-07-08T08:06:29;24.50;85.00
43530;DHT22;55654;50.966;6.878;2023-07-08T08:08:54;24.60;85.10
43530;DHT22;55654;50.966;6.878;2023-07-08T08:11:25;24.70;84.40
43530;DHT22;55654;50.966;6.878;2023-07-08T08:13:52;24.70;84.60
43530;DHT22;55654;50.966;6.878;2023-07-08T08:16:18;24.70;83.80
43530;DHT22;55654;50.966;6.878;2023-07-08T08:18:44;24.70;83.80
43530;DHT22;55654;50.966;6.878;2023-07-08T08:21:10;24.70;83.50
43530;DHT22;55654;50.966;6.878;2023-07-08T08:23:35;24.70;83.30
43530;DHT22;55654;50.966;6.878;2023-07-08T08:26:03;24.70;84.20
43530;DHT22;55654;50.966;6.878;2023-07-08T08:28:31;24.80;84.50
43530;DHT22;55654;50.966;6.878;2023-07-08T08:30:59;24.90;84.20
43530;DHT22;55654;50.966;6.878;2023-07-08T08:33:24;24.90;84.00
43530;DHT22;55654;50.966;6.878;2023-07-08T08:35:52;25.00;83.70
43530;DHT22;55654;50.966;6.878;2023-07-08T08:38:18;25.10;83.60
43530;DHT22;55654;50.966;6.878;2023-07-08T08:40:44;25.10;83.50
43530;DHT22;55654;50.966;6.878;2023-07-08T08:43:23;25.10;83.20
43530;DHT22;55654;50.966;6.878;2023-07-08T08:46:18;25.20;83.40
43530;DHT22;55654;50.966;6.878;2023-07-08T08:48:55;25.30;83.90
43530;DHT22;55654;50.966;6.878;2023-07-08T08:51:23;25.30;83.40
43530;DHT22;55654;50.966;6.878;2023-07-08T08:53:52;25.40;82.50
43530;DHT22;55654;50.966;6.878;2023-07-08T08:56:23;25.60;82.10
43530;DHT22;55654;50.966;6.878;2023-07-08T08:59:02;25.60;82.00
43530;DHT22;55654;50.966;6.878;2023-07-08T09:01:30;25.70;81.90
43530;DHT22;55654;50.966;6.878;2023-07-08T09:04:10;25.80;81.30
43530;DHT22;55654;50.966;6.878;2023-07-08T09:06:39;25.90;81.20
43530;DHT22;55654;50.966;6.878;2023-07-08T09:12:16;26.00;80.30
43530;DHT22;55654;50.966;6.878;2023-07-08T09:14:43;26.10;79.10
43530;DHT22;55654;50.966;6.878;2023-07-08T09:17:19;26.30;77.80
43530;DHT22;55654;50.966;6.878;2023-07-08T09:22:44;26.60;76.70
43530;DHT22;55654;50.966;6.878;2023-07-08T09:25:33;26.70;77.10
43530;DHT22;55654;50.966;6.878;2023-07-08T09:28:02;26.80;75.80
43530;DHT22;55654;50.966;6.878;2023-07-08T09:30:31;26.90;75.90
43530;DHT22;55654;50.966;6.878;2023-07-08T09:33:06;27.00;76.30
43530;DHT22;55654;50.966;6.878;2023-07-08T09:35:46;27.00;75.20
43530;DHT22;55654;50.966;6.878;2023-07-08T09:38:17;27.10;75.00
43530;DHT22;55654;50.966;6.878;2023-07-08T09:40:46;27.10;75.30
43530;DHT22;55654;50.966;6.878;2023-07-08T09:45:50;27.20;74.70
43530;DHT22;55654;50.966;6.878;2023-07-08T09:48:28;27.30;74.90
43530;DHT22;55654;50.966;6.878;2023-07-08T09:50:57;27.40;74.60
43530;DHT22;55654;50.966;6.878;2023-07-08T09:53:23;27.40;74.50
43530;DHT22;55654;50.966;6.878;2023-07-08T09:55:50;27.50;73.20
43530;DHT22;55654;50.966;6.878;2023-07-08T09:58:40;27.60;73.80
43530;DHT22;55654;50.966;6.878;2023-07-08T10:01:12;27.60;73.30
43530;DHT22;55654;50.966;6.878;2023-07-08T10:03:38;27.60;73.80
43530;DHT22;55654;50.966;6.878;2023-07-08T10:06:20;27.60;73.70
43530;DHT22;55654;50.966;6.878;2023-07-08T10:08:49;27.70;73.40
43530;DHT22;55654;50.966;6.878;2023-07-08T10:11:27;27.80;72.90
43530;DHT22;55654;50.966;6.878;2023-07-08T10:13:57;27.90;72.00
43530;DHT22;55654;50.966;6.878;2023-07-08T10:18:52;28.00;72.60
43530;DHT22;55654;50.966;6.878;2023-07-08T10:27:04;28.20;72.40
43530;DHT22;55654;50.966;6.878;2023-07-08T10:29:51;28.20;72.40
43530;DHT22;55654;50.966;6.878;2023-07-08T10:35:33;28.20;71.00
43530;DHT22;55654;50.966;6.878;2023-07-08T10:41:00;28.40;71.30
43530;DHT22;55654;50.966;6.878;2023-07-08T11:08:11;28.70;70.90
43530;DHT22;55654;50.966;6.878;2023-07-08T11:13:22;28.80;69.20
43530;DHT22;55654;50.966;6.878;2023-07-08T11:16:02;28.80;68.40
43530;DHT22;55654;50.966;6.878;2023-07-08T11:18:42;28.90;69.10
43530;DHT22;55654;50.966;6.878;2023-07-08T11:24:06;29.10;68.20
43530;DHT22;55654;50.966;6.878;2023-07-08T11:29:17;29.20;67.50
43530;DHT22;55654;50.966;6.878;2023-07-08T11:31:47;29.30;67.00
43530;DHT22;55654;50.966;6.878;2023-07-08T11:34:14;29.30;67.20
43530;DHT22;55654;50.966;6.878;2023-07-08T11:36:41;29.40;66.80
43530;DHT22;55654;50.966;6.878;2023-07-08T11:39:27;29.40;66.80
43530;DHT22;55654;50.966;6.878;2023-07-08T11:42:04;29.50;66.70
43530;DHT22;55654;50.966;6.878;2023-07-08T11:44:33;29.60;66.10
43530;DHT22;55654;50.966;6.878;2023-07-08T11:46:59;29.70;66.40
43530;DHT22;55654;50.966;6.878;2023-07-08T11:49:25;29.80;66.60
43530;DHT22;55654;50.966;6.878;2023-07-08T11:51:52;29.70;65.70
43530;DHT22;55654;50.966;6.878;2023-07-08T11:54:31;29.80;65.30
43530;DHT22;55654;50.966;6.878;2023-07-08T11:57:04;29.90;64.70
43530;DHT22;55654;50.966;6.878;2023-07-08T11:59:33;30.00;64.30
43530;DHT22;55654;50.966;6.878;2023-07-08T12:02:13;30.00;65.20
43530;DHT22;55654;50.966;6.878;2023-07-08T12:05:02;30.00;64.70
43530;DHT22;55654;50.966;6.878;2023-07-08T12:07:32;30.10;64.80
43530;DHT22;55654;50.966;6.878;2023-07-08T12:10:31;30.10;64.20
43530;DHT22;55654;50.966;6.878;2023-07-08T12:12:58;30.20;61.80
43530;DHT22;55654;50.966;6.878;2023-07-08T12:17:52;30.40;63.00
43530;DHT22;55654;50.966;6.878;2023-07-08T12:20:35;30.50;63.40
43530;DHT22;55654;50.966;6.878;2023-07-08T12:23:20;30.50;63.10
43530;DHT22;55654;50.966;6.878;2023-07-08T12:25:51;30.50;63.80
43530;DHT22;55654;50.966;6.878;2023-07-08T12:28:17;30.50;63.70
43530;DHT22;55654;50.966;6.878;2023-07-08T12:30:45;30.50;62.10
43530;DHT22;55654;50.966;6.878;2023-07-08T12:33:22;30.60;62.80
43530;DHT22;55654;50.966;6.878;2023-07-08T12:35:50;30.60;63.00
43530;DHT22;55654;50.966;6.878;2023-07-08T12:38:37;30.70;62.30
43530;DHT22;55654;50.966;6.878;2023-07-08T12:41:20;30.80;61.80
43530;DHT22;55654;50.966;6.878;2023-07-08T12:43:46;31.00;61.90
43530;DHT22;55654;50.966;6.878;2023-07-08T12:46:17;31.10;60.80
43530;DHT22;55654;50.966;6.878;2023-07-08T12:48:45;31.30;61.00
43530;DHT22;55654;50.966;6.878;2023-07-08T12:51:13;31.30;60.20
43530;DHT22;55654;50.966;6.878;2023-07-08T12:53:41;31.30;60.70
43530;DHT22;55654;50.966;6.878;2023-07-08T12:56:07;31.30;60.90
43530;DHT22;55654;50.966;6.878;2023-07-08T12:58:45;31.40;60.70
43530;DHT22;55654;50.966;6.878;2023-07-08T13:01:17;31.50;61.10
43530;DHT22;55654;50.966;6.878;2023-07-08T13:03:45;31.50;60.80
43530;DHT22;55654;50.966;6.878;2023-07-08T13:06:15;31.50;61.00
43530;DHT22;55654;50.966;6.878;2023-07-08T13:08:42;31.60;60.10
43530;DHT22;55654;50.966;6.878;2023-07-08T13:11:15;31.70;59.30
43530;DHT22;55654;50.966;6.878;2023-07-08T13:13:58;31.70;60.10
43530;DHT22;55654;50.966;6.878;2023-07-08T13:16:31;31.80;58.40
43530;DHT22;55654;50.966;6.878;2023-07-08T13:18:58;31.90;58.40
43530;DHT22;55654;50.966;6.878;2023-07-08T13:21:23;32.00;58.00
43530;DHT22;55654;50.966;6.878;2023-07-08T13:23:53;32.00;57.20
43530;DHT22;55654;50.966;6.878;2023-07-08T13:26:23;32.00;57.40
43530;DHT22;55654;50.966;6.878;2023-07-08T13:28:50;32.10;57.90
43530;DHT22;55654;50.966;6.878;2023-07-08T13:31:24;32.10;58.10
43530;DHT22;55654;50.966;6.878;2023-07-08T13:33:54;32.20;57.20
43530;DHT22;55654;50.966;6.878;2023-07-08T13:36:34;32.20;57.50
43530;DHT22;55654;50.966;6.878;2023-07-08T13:39:06;32.30;57.70
43530;DHT22;55654;50.966;6.878;2023-07-08T13:41:33;32.40;57.60
43530;DHT22;55654;50.966;6.878;2023-07-08T13:44:07;32.50;57.70
43530;DHT22;55654;50.966;6.878;2023-07-08T13:46:37;32.50;57.50
43530;DHT22;55654;50.966;6.878;2023-07-08T13:51:47;32.70;57.20
43530;DHT22;55654;50.966;6.878;2023-07-08T13:54:23;32.70;57.50
43530;DHT22;55654;50.966;6.878;2023-07-08T13:56:50;32.90;57.20
43530;DHT22;55654;50.966;6.878;2023-07-08T13:59:21;33.00;56.80
43530;DHT22;55654;50.966;6.878;2023-07-08T14:01:47;33.10;57.80
43530;DHT22;55654;50.966;6.878;2023-07-08T14:07:16;33.30;56.60
43530;DHT22;55654;50.966;6.878;2023-07-08T14:09:42;33.40;56.60
43530;DHT22;55654;50.966;6.878;2023-07-08T14:12:10;33.40;56.50
43530;DHT22;55654;50.966;6.878;2023-07-08T14:14:36;33.40;56.40
43530;DHT22;55654;50.966;6.878;2023-07-08T14:17:02;33.40;55.90
43530;DHT22;55654;50.966;6.878;2023-07-08T14:19:32;33.30;56.50
43530;DHT22;55654;50.966;6.878;2023-07-08T14:22:19;33.20;55.90
43530;DHT22;55654;50.966;6.878;2023-07-08T14:24:48;33.30;56.70
43530;DHT22;55654;50.966;6.878;2023-07-08T14:27:14;33.40;56.90
43530;DHT22;55654;50.966;6.878;2023-07-08T14:29:42;33.50;56.90
43530;DHT22;55654;50.966;6.878;2023-07-08T14:32:23;33.60;56.80
43530;DHT22;55654;50.966;6.878;2023-07-08T14:34:55;33.70;56.20
43530;DHT22;55654;50.966;6.878;2023-07-08T14:37:24;33.80;55.00
43530;DHT22;55654;50.966;6.878;2023-07-08T14:39:50;33.80;55.00
43530;DHT22;55654;50.966;6.878;2023-07-08T14:42:19;33.70;56.80
43530;DHT22;55654;50.966;6.878;2023-07-08T14:44:50;33.70;56.20
43530;DHT22;55654;50.966;6.878;2023-07-08T14:47:17;33.70;56.10
43530;DHT22;55654;50.966;6.878;2023-07-08T14:49:43;33.60;56.30
43530;DHT22;55654;50.966;6.878;2023-07-08T14:52:09;33.70;56.50
43530;DHT22;55654;50.966;6.878;2023-07-08T14:54:34;33.70;56.20
43530;DHT22;55654;50.966;6.878;2023-07-08T14:57:01;33.70;56.80
43530;DHT22;55654;50.966;6.878;2023-07-08T14:59:29;33.70;56.70
43530;DHT22;55654;50.966;6.878;2023-07-08T15:01:57;33.80;56.40
43530;DHT22;55654;50.966;6.878;2023-07-08T15:04:26;33.90;56.40
43530;DHT22;55654;50.966;6.878;2023-07-08T15:06:52;33.90;56.70
43530;DHT22;55654;50.966;6.878;2023-07-08T15:09:19;33.90;56.70
43530;DHT22;55654;50.966;6.878;2023-07-08T15:11:47;34.00;56.40
43530;DHT22;55654;50.966;6.878;2023-07-08T15:14:20;33.90;55.90
43530;DHT22;55654;50.966;6.878;2023-07-08T15:16:49;33.90;55.40
43530;DHT22;55654;50.966;6.878;2023-07-08T15:19:16;33.80;56.60
43530;DHT22;55654;50.966;6.878;2023-07-08T15:21:41;33.70;57.00
43530;DHT22;55654;50.966;6.878;2023-07-08T15:24:09;33.60;56.30
43530;DHT22;55654;50.966;6.878;2023-07-08T15:26:37;33.60;56.90
43530;DHT22;55654;50.966;6.878;2023-07-08T15:29:03;33.60;57.30
43530;DHT22;55654;50.966;6.878;2023-07-08T15:31:32;33.50;56.70
43530;DHT22;55654;50.966;6.878;2023-07-08T15:34:04;33.60;56.80
43530;DHT22;55654;50.966;6.878;2023-07-08T15:36:30;33.80;57.10
43530;DHT22;55654;50.966;6.878;2023-07-08T15:38:57;34.00;55.80
43530;DHT22;55654;50.966;6.878;2023-07-08T15:41:24;34.10;56.80
43530;DHT22;55654;50.966;6.878;2023-07-08T15:43:57;34.20;56.30
43530;DHT22;55654;50.966;6.878;2023-07-08T15:46:29;34.40;55.80
43530;DHT22;55654;50.966;6.878;2023-07-08T15:48:55;34.40;55.60
43530;DHT22;55654;50.966;6.878;2023-07-08T15:51:23;34.40;55.60
43530;DHT22;55654;50.966;6.878;2023-07-08T15:53:58;34.40;57.20
43530;DHT22;55654;50.966;6.878;2023-07-08T15:56:32;34.30;57.10
43530;DHT22;55654;50.966;6.878;2023-07-08T15:58:57;34.40;56.40
43530;DHT22;55654;50.966;6.878;2023-07-08T16:01:32;34.30;55.90
43530;DHT22;55654;50.966;6.878;2023-07-08T16:04:25;34.20;56.40
43530;DHT22;55654;50.966;6.878;2023-07-08T16:07:10;34.00;56.70
43530;DHT22;55654;50.966;6.878;2023-07-08T16:09:36;33.80;56.40
43530;DHT22;55654;50.966;6.878;2023-07-08T16:12:16;33.70;57.00
43530;DHT22;55654;50.966;6.878;2023-07-08T16:14:55;33.60;58.80
43530;DHT22;55654;50.966;6.878;2023-07-08T16:17:45;33.50;59.60
43530;DHT22;55654;50.966;6.878;2023-07-08T16:20:32;33.50;58.90
43530;DHT22;55654;50.966;6.878;2023-07-08T16:23:04;33.60;57.80
43530;DHT22;55654;50.966;6.878;2023-07-08T16:25:55;33.60;58.40
43530;DHT22;55654;50.966;6.878;2023-07-08T16:28:29;33.60;57.80
43530;DHT22;55654;50.966;6.878;2023-07-08T16:30:56;33.70;57.50
43530;DHT22;55654;50.966;6.878;2023-07-08T16:33:22;33.60;57.10
43530;DHT22;55654;50.966;6.878;2023-07-08T16:35:53;33.60;57.60
43530;DHT22;55654;50.966;6.878;2023-07-08T16:38:19;33.60;58.10
43530;DHT22;55654;50.966;6.878;2023-07-08T16:40:58;33.50;57.10
43530;DHT22;55654;50.966;6.878;2023-07-08T16:43:31;33.40;57.70
43530;DHT22;55654;50.966;6.878;2023-07-08T16:46:00;33.30;57.50
43530;DHT22;55654;50.966;6.878;2023-07-08T16:48:25;33.30;57.90
43530;DHT22;55654;50.966;6.878;2023-07-08T16:50:54;33.30;59.10
43530;DHT22;55654;50.966;6.878;2023-07-08T16:53:20;33.30;60.60
43530;DHT22;55654;50.966;6.878;2023-07-08T16:55:49;33.30;58.60